COOK1: Arkansas River Nr Coolidge, KS

Data processed at Sun May 28 2017 22:29


All information presented herein is the property of the government of the United States of America and may be revised or deleted at any time without prior notice.
Dissemination of this information without the expressed written consent of the Public Affairs Office, Tulsa District U.S. Army Corps of Engineers is strictly prohibited.
These data are gathered electronically and, as presented, have not undergone any form of quality control. These data are not guaranteed to be valid or correct.
Go to home page.
Go to station list.
Go to home page.

Upstream stations:

Downstream station:
Previous Day
Next Day
Current Day
    
SHEF ID:       COOK1     ARKANSAS R NR COOLIDGE, KS
STATION TYPE:  

               PRECIP     STAGE  STAGE(2)  RIV-FLOW  WTR-TEMP   CONDUCT  BAT-LOAD
                   in        ft        ft       cfs         C   umho/cm      volt
              Ccp-Rev   Ccp-Rev   Ccp-Rev   Ccp-Rev   Ccp-Rev   Ccp-Rev   Ccp-Rev
(US/Central)
05/28 00:00      0.00      3.18      3.22       139     17.02      6575     12.89
05/28 01:00      0.00      3.19      3.21       140     16.63      6581     12.89
05/28 02:00      0.00      3.19      3.22       140     16.19      6584     12.89
05/28 03:00      0.00      3.17      3.22       137     15.69      6584     12.83
05/28 04:00      0.00      3.17      3.19       137     15.28      6595     12.83
05/28 05:00      0.00      3.18      3.20       139     14.92      6611     12.77
05/28 06:00      0.00      3.17      3.20       137     14.52      6626     12.77
05/28 07:00      0.00      3.17      3.18       137     14.10      6635     12.77
05/28 08:00      0.00      3.17      3.21       137     13.87      6644     12.77
05/28 09:00      0.00      3.16      3.23       136     14.06      6651     12.83
05/28 10:00      0.00      3.18      3.21       139     14.78      6664     13.07
05/28 11:00      0.00      3.17      3.22       137     15.92      6674     13.65
05/28 12:00      0.00      3.18      3.24       139     17.37      6653     13.71
05/28 13:00      0.00      3.18      3.26       139     18.87      6622     13.77
05/28 14:00      0.00      3.16      3.21       136     20.27      6620     13.77
05/28 15:00      0.00      3.17      3.24       137     20.96      6624     13.42
05/28 16:00      0.00      3.16      3.23       136     22.34      6610     13.77
05/28 17:00      0.00      3.16      3.25       136     23.92      6631     13.59
05/28 18:00      0.00      3.16      3.21       136     23.46      6637     13.24
05/28 19:00      0.00      3.16      3.23       136     23.23      6644     13.24
05/28 20:00      0.00      3.15      3.21       134     22.81      6653     13.18
05/28 21:00      0.00      3.16      3.22       136     22.19      6662     13.12
05/28 22:00      0.00      3.14      3.19      ----     21.48      6674     13.07
05/28 23:00      ----      ----      ----      ----      ----      ----      ----